Data for 08/31/2008

Time Sea-Level Adjusted Pressure Absolute Pressure Temperature Relative Humidity Dew Point   
(mb) (inHg) (mb) (inHg) (C) (F) (%) (C) (F)
00:05 1008 29.77 837 24.72 18.1 64.5 35 2.5 36.5
00:10 1008 29.77 837 24.72 18.1 64.6 34 2.1 35.7
00:15 1008 29.77 837 24.72 18.3 64.9 33 1.9 35.4
00:20 1008 29.77 837 24.72 18.3 64.9 37 3.6 38.5
00:25 1008 29.77 837 24.72 17.9 64.2 35 2.6 36.6
00:30 1008 29.77 837 24.72 17.6 63.6 38 3.2 37.8
00:35 1008 29.77 837 24.72 17 62.7 41 3.8 38.8
00:40 1008 29.77 837 24.72 16.8 62.2 40 3.1 37.6
00:45 1008 29.77 837 24.72 17.2 62.9 38 2.9 37.3
00:50 1008 29.77 837 24.72 18 64.3 35 2.2 36
00:55 1008 29.77 837 24.72 18.8 65.9 33 2.5 36.5
01:00 1008 29.77 837 24.72 18.7 65.7 34 2.5 36.6
01:05 1008 29.77 837 24.72 18.8 65.9 33 2.2 36
01:10 1007 29.74 837 24.72 19 66.2 38 4.6 40.3
01:15 1008 29.77 837 24.72 18.7 65.6 34 2.6 36.6
01:20 1008 29.77 837 24.72 18.3 65 38 3.7 38.7
01:25 1008 29.77 837 24.72 17.8 64 39 3.6 38.5
01:30 1007 29.74 837 24.72 18 64.4 37 3.2 37.7
01:35 1007 29.74 837 24.72 18.2 64.7 38 3.9 39
01:40 1008 29.77 837 24.72 17.9 64.2 41 4.6 40.2
01:45 1008 29.77 837 24.72 17.7 63.8 40 4.1 39.4
01:50 1008 29.77 837 24.72 17.8 64 42 4.7 40.4
01:55 1008 29.77 837 24.72 17.7 63.9 41 4.5 40.1
02:00 1008 29.77 837 24.72 17.7 63.8 42 4.6 40.3
02:05 1008 29.77 837 24.72 17.7 63.8 42 4.8 40.7
02:10 1008 29.77 837 24.72 17.4 63.3 44 5 41
02:15 1008 29.77 837 24.72 17 62.7 45 5.2 41.3
02:20 1008 29.77 837 24.72 16.8 62.2 46 5.2 41.4
02:25 1008 29.77 837 24.72 16.6 61.9 46 5.2 41.3
02:30 1008 29.77 837 24.72 16.5 61.8 48 5.5 41.9
02:35 1008 29.77 837 24.72 16.2 61.1 50 5.7 42.3
02:40 1008 29.77 837 24.72 15.6 60 52 5.7 42.3
02:45 1008 29.77 837 24.72 15.2 59.3 53 5.8 42.4
02:50 1008 29.77 837 24.72 15.2 59.4 53 5.7 42.3
02:55 1008 29.77 837 24.72 15.4 59.8 53 5.9 42.6
03:00 1008 29.77 837 24.72 15.9 60.6 50 5.7 42.2
03:05 1008 29.77 838 24.75 15.9 60.7 51 5.9 42.7
03:10 1009 29.8 838 24.75 15.9 60.7 52 6.1 43
03:15 1009 29.8 838 24.75 16 60.8 50 5.6 42.1
03:20 1009 29.8 838 24.75 15.9 60.7 51 6 42.8
03:25 1009 29.8 838 24.75 16 60.7 51 5.8 42.5
03:30 1009 29.8 838 24.75 16.2 61.2 49 5.5 41.9
03:35 1009 29.8 838 24.75 16.4 61.5 50 6.1 42.9
03:40 1009 29.8 838 24.75 16.3 61.3 51 6.2 43.1
03:45 1009 29.8 838 24.75 16.2 61.2 52 6.4 43.5
03:50 1009 29.8 838 24.75 16.5 61.6 49 5.7 42.3
03:55 1009 29.8 838 24.75 16.5 61.6 49 5.8 42.5
04:00 1009 29.8 838 24.75 16.3 61.4 51 6.3 43.3
04:05 1009 29.8 838 24.75 16.2 61.2 51 6.1 43
04:10 1009 29.8 838 24.75 16 60.9 51 6.1 42.9
04:15 1009 29.8 838 24.75 16 60.7 51 6 42.8
04:20 1009 29.8 838 24.75 16 60.7 52 6.2 43.1
04:25 1009 29.8 838 24.75 15.9 60.6 53 6.4 43.5
04:30 1009 29.8 838 24.75 15.6 60 55 6.6 43.9
04:35 1008 29.77 837 24.72 15.1 59.2 56 6.5 43.8
04:40 1008 29.77 838 24.75 15.1 59.2 55 6.3 43.3
04:45 1009 29.8 838 24.75 15.4 59.7 55 6.5 43.6
04:50 1009 29.8 838 24.75 15.5 60 54 6.2 43.2
04:55 1008 29.77 838 24.75 15.5 59.9 55 6.6 43.9
05:00 1008 29.77 838 24.75 15.8 60.4 52 5.9 42.7
05:05 1008 29.77 838 24.75 16.6 61.9 49 6 42.9
05:10 1009 29.8 838 24.75 16.5 61.7 51 6.5 43.7
05:15 1009 29.8 838 24.75 16 60.9 52 6.4 43.5
05:20 1009 29.8 838 24.75 15.7 60.3 56 7.1 44.7
05:25 1009 29.8 838 24.75 15.4 59.8 55 6.6 43.8
05:30 1009 29.8 838 24.75 15.3 59.5 55 6.3 43.3
05:35 1009 29.8 838 24.75 15.2 59.4 55 6.3 43.4
05:40 1008 29.77 837 24.72 15.1 59.1 56 6.6 43.8
05:45 1008 29.77 837 24.72 14.9 58.8 56 6.3 43.4
05:50 1008 29.77 838 24.75 15 59 56 6.4 43.5
05:55 1009 29.8 838 24.75 14.8 58.7 56 6.1 43.1
06:00 1009 29.8 838 24.75 14.5 58 57 6.1 43
06:05 1009 29.8 838 24.75 14.2 57.6 58 6.2 43.2
06:10 1009 29.8 838 24.75 14.1 57.4 58 6.1 43
06:15 1008 29.77 838 24.75 14.1 57.3 59 6.1 43
06:20 1008 29.77 838 24.75 14 57.1 59 6.2 43.1
06:25 1008 29.77 837 24.72 13.8 56.8 60 6.2 43.1
06:30 1008 29.77 838 24.75 13.6 56.5 61 6.2 43.2
06:35 1008 29.77 837 24.72 13.6 56.4 61 6.2 43.1
06:40 1008 29.77 837 24.72 13.7 56.6 61 6.4 43.4
06:45 1008 29.77 837 24.72 13.3 55.9 62 6.3 43.4
06:50 1008 29.77 837 24.72 13.4 56.1 62 6.3 43.3
06:55 1008 29.77 837 24.72 13.5 56.4 61 6.1 43.1
07:00 1008 29.77 837 24.72 13.6 56.5 62 6.5 43.6
07:05 1008 29.77 838 24.75 13.3 55.9 64 6.6 43.8
07:10 1008 29.77 838 24.75 12.9 55.2 66 6.7 44.1
07:15 1008 29.77 838 24.75 12.6 54.7 67 6.7 44.1
07:20 1008 29.77 838 24.75 12.5 54.5 67 6.6 43.8
07:25 1008 29.77 838 24.75 12.5 54.5 66 6.4 43.5
07:30 1008 29.77 837 24.72 12.6 54.7 64 6.1 43
07:35 1008 29.77 837 24.72 13 55.4 64 6.5 43.6
07:40 1008 29.77 838 24.75 13 55.4 65 6.7 44.1
07:45 1008 29.77 838 24.75 13 55.4 65 6.7 44
07:50 1008 29.77 838 24.75 13 55.4 65 6.6 43.9
07:55 1008 29.77 838 24.75 13 55.5 66 6.9 44.3
08:00 1008 29.77 837 24.72 13 55.5 65 6.7 44
08:05 1008 29.77 838 24.75 13.3 55.9 64 6.6 43.9
08:10 1008 29.77 838 24.75 13.6 56.4 64 6.9 44.4
08:15 1008 29.77 838 24.75 13.7 56.6 64 7.1 44.8
08:20 1008 29.77 838 24.75 13.5 56.3 64 6.9 44.5
08:25 1009 29.8 838 24.75 13.5 56.4 63 6.7 44
08:30 1008 29.77 838 24.75 13.7 56.6 63 6.8 44.3
08:35 1008 29.77 838 24.75 13.5 56.3 63 6.7 44.1
08:40 1008 29.77 838 24.75 13.4 56.1 64 6.8 44.3
08:45 1008 29.77 838 24.75 13.4 56.1 64 6.8 44.2
08:50 1009 29.8 838 24.75 13.4 56 64 6.8 44.2
08:55 1009 29.8 838 24.75 13.3 55.9 64 6.8 44.2
09:00 1009 29.8 838 24.75 13.4 56.1 64 6.8 44.2
09:05 1009 29.8 838 24.75 13.5 56.3 64 6.9 44.4
09:10 1009 29.8 838 24.75 13.6 56.4 64 7.1 44.7
09:15 1009 29.8 838 24.75 13.6 56.5 64 6.9 44.4
09:20 1009 29.8 838 24.75 13.8 56.8 64 7.1 44.8
09:25 1009 29.8 838 24.75 13.8 56.8 65 7.4 45.3
09:30 1009 29.8 838 24.75 13.8 56.9 63 7.1 44.8
09:35 1009 29.8 838 24.75 14.2 57.6 63 7.3 45.1
09:40 1009 29.8 838 24.75 14.1 57.3 63 7.2 45
09:45 1009 29.8 838 24.75 14.1 57.4 63 7.3 45.1
09:50 1009 29.8 838 24.75 14.5 58.2 61 7.1 44.7
09:55 1009 29.8 838 24.75 14.9 58.8 62 7.8 46
10:00 1009 29.8 838 24.75 14.6 58.3 61 7.3 45.1
10:05 1009 29.8 838 24.75 14.9 58.9 61 7.6 45.6
10:10 1009 29.8 838 24.75 15.1 59.1 59 7.2 45
10:15 1009 29.8 838 24.75 15.4 59.8 60 7.8 46.1
10:20 1009 29.8 838 24.75 14.7 58.5 62 7.6 45.7
10:25 1009 29.8 838 24.75 14.8 58.6 61 7.4 45.4
10:30 1009 29.8 838 24.75 15.1 59.1 60 7.5 45.6
10:35 1009 29.8 838 24.75 15.1 59.2 60 7.4 45.4
10:40 1009 29.8 838 24.75 15.7 60.2 58 7.5 45.4
10:45 1009 29.8 838 24.75 15.8 60.4 59 7.8 46
10:50 1009 29.8 838 24.75 15.8 60.4 56 7 44.7
10:55 1009 29.8 838 24.75 16.7 62 55 7.7 45.8
11:00 1009 29.8 838 24.75 16.4 61.5 56 7.8 46
11:05 1009 29.8 838 24.75 17 62.6 53 7.5 45.4
11:10 1009 29.8 838 24.75 17.3 63.2 52 7.4 45.4
11:15 1009 29.8 838 24.75 17.4 63.3 52 7.7 45.8
11:20 1009 29.8 838 24.75 17 62.7 52 7.3 45.1
11:25 1009 29.8 838 24.75 17.7 63.8 50 7.2 45
11:30 1009 29.8 838 24.75 17.7 63.9 50 7.4 45.3
11:35 1009 29.8 838 24.75 18.1 64.5 49 7.4 45.4
11:40 1009 29.8 838 24.75 17.9 64.3 48 6.9 44.5
11:45 1009 29.8 838 24.75 18.5 65.2 48 7.4 45.3
11:50 1009 29.8 838 24.75 18.1 64.6 49 7.4 45.3
11:55 1009 29.8 838 24.75 19 66.2 45 6.9 44.3
12:00 1009 29.8 838 24.75 19.3 66.7 44 6.7 44.1
12:05 1008 29.77 838 24.75 19.8 67.6 44 7.3 45.1
12:10 1008 29.77 838 24.75 19.9 67.8 45 7.6 45.6
12:15 1008 29.77 838 24.75 19 66.2 47 7.5 45.5
12:20 1008 29.77 837 24.72 19.9 67.8 44 7.3 45.1
12:25 1008 29.77 837 24.72 20.6 69 43 7.7 45.9
12:30 1008 29.77 837 24.72 20 68 45 7.8 46.1
12:35 1008 29.77 837 24.72 19.7 67.5 45 7.5 45.5
12:40 1008 29.77 837 24.72 20.7 69.2 41 7.1 44.8
12:45 1008 29.77 837 24.72 21.5 70.7 41 7.8 46.1
12:50 1008 29.77 837 24.72 21 69.9 42 7.9 46.2
12:55 1008 29.77 837 24.72 20.1 68.2 44 7.5 45.6
13:00 1008 29.77 837 24.72 20.8 69.4 43 7.7 45.9
13:05 1008 29.77 837 24.72 20.6 69.1 44 8.2 46.8
13:10 1008 29.77 837 24.72 20.8 69.5 42 7.7 45.9
13:15 1008 29.77 837 24.72 20.9 69.5 45 8.5 47.4
13:20 1008 29.77 837 24.72 20.7 69.3 43 7.9 46.2
13:25 1008 29.77 837 24.72 20.3 68.6 45 8.3 46.9
13:30 1008 29.77 837 24.72 20.9 69.5 44 8.4 47.1
13:35 1008 29.77 837 24.72 20.4 68.7 45 8.3 47
13:40 1008 29.77 837 24.72 20 68 46 8.2 46.7
13:45 1008 29.77 837 24.72 20.3 68.6 45 8.3 46.9
13:50 1008 29.77 837 24.72 20.4 68.6 44 7.9 46.3
13:55 1008 29.77 837 24.72 21 69.7 43 8 46.4
14:00 1008 29.77 837 24.72 21.1 69.9 43 8.1 46.6
14:05 1008 29.77 837 24.72 21.5 70.8 42 8.1 46.5
14:10 1008 29.77 837 24.72 21.3 70.3 42 8.1 46.6
14:15 1008 29.77 837 24.72 21.2 70.2 43 8.2 46.7
14:20 1008 29.77 837 24.72 21 69.9 43 8.1 46.5
14:25 1008 29.77 837 24.72 21.5 70.7 42 8.1 46.6
14:30 1008 29.77 837 24.72 21.2 70.1 43 8.4 47.1
14:35 1008 29.77 837 24.72 21.3 70.3 42 8.1 46.5
14:40 1007 29.74 837 24.72 21.2 70.1 42 7.9 46.3
14:45 1007 29.74 837 24.72 21.1 70 43 8.2 46.8
14:50 1007 29.74 837 24.72 20.9 69.6 42 7.7 45.8
14:55 1007 29.74 837 24.72 21.2 70.1 42 7.9 46.3
15:00 1007 29.74 837 24.72 20.9 69.7 42 7.7 45.9
15:05 1007 29.74 836 24.69 20.9 69.5 43 7.8 46.1
15:10 1007 29.74 836 24.69 21.1 70 41 7.4 45.4
15:15 1007 29.74 836 24.69 21.5 70.8 40 7.4 45.3
15:20 1007 29.74 836 24.69 21.5 70.8 42 8.4 47.2
15:25 1007 29.74 836 24.69 21 69.7 41 7.4 45.4
15:30 1007 29.74 836 24.69 21.3 70.3 43 8.4 47.2
15:35 1007 29.74 836 24.69 21.5 70.7 41 7.8 46
15:40 1007 29.74 836 24.69 21 69.7 44 8.4 47.1
15:45 1007 29.74 836 24.69 20.9 69.6 42 7.7 45.8
15:50 1007 29.74 836 24.69 21.6 70.9 40 7.8 46
15:55 1007 29.74 837 24.72 21.2 70.2 42 7.9 46.3
16:00 1007 29.74 837 24.72 20.8 69.5 42 7.6 45.8
16:05 1007 29.74 837 24.72 21 69.8 41 7.5 45.5
16:10 1007 29.74 837 24.72 20.8 69.5 42 7.7 45.9
16:15 1007 29.74 837 24.72 20.8 69.4 42 7.6 45.7
16:20 1007 29.74 837 24.72 20.9 69.7 40 7.2 44.9
16:25 1007 29.74 837 24.72 21.1 69.9 41 7.6 45.7
16:30 1007 29.74 837 24.72 21.5 70.6 41 7.9 46.3
16:35 1007 29.74 837 24.72 21.3 70.4 40 7.4 45.3
16:40 1007 29.74 837 24.72 21.1 70 42 7.9 46.2
16:45 1008 29.77 837 24.72 20.8 69.5 41 7.3 45.2
16:50 1007 29.74 837 24.72 20.6 69.1 42 7.5 45.4
16:55 1007 29.74 837 24.72 20.5 68.9 43 7.6 45.7
17:00 1007 29.74 837 24.72 20.3 68.5 43 7.5 45.5
17:05 1008 29.77 837 24.72 19.7 67.5 45 7.8 46
17:10 1008 29.77 837 24.72 19 66.3 46 7.4 45.2
17:15 1008 29.77 837 24.72 18.8 65.8 47 7.4 45.3
17:20 1008 29.77 837 24.72 18.2 64.8 49 7.4 45.4
17:25 1008 29.77 838 24.75 17.8 64 50 7.4 45.3
17:30 1009 29.8 838 24.75 17.5 63.6 51 7.3 45.1
17:35 1009 29.8 838 24.75 17.3 63.2 51 7.3 45.1
17:40 1009 29.8 838 24.75 16.8 62.3 51 6.9 44.4
17:45 1009 29.8 838 24.75 16.5 61.7 52 6.9 44.3
17:50 1009 29.8 838 24.75 16.4 61.5 52 6.6 44
17:55 1009 29.8 838 24.75 16.2 61.1 53 6.6 43.9
18:00 1009 29.8 838 24.75 15.9 60.5 53 6.3 43.3
18:05 1009 29.8 838 24.75 15.6 60.1 55 6.6 43.9
18:10 1009 29.8 838 24.75 14.6 58.4 62 7.4 45.3
18:15 1009 29.8 838 24.75 13.6 56.4 64 7 44.5
18:20 1009 29.8 839 24.78 13 55.3 65 6.7 44
18:25 1010 29.83 839 24.78 12.5 54.6 68 6.8 44.3
18:30 1010 29.83 839 24.78 12 53.6 70 6.6 43.9
18:35 1010 29.83 839 24.78 11.9 53.4 69 6.5 43.7
18:40 1010 29.83 839 24.78 12 53.6 70 6.7 44.1
18:45 1010 29.83 840 24.81 11.8 53.2 71 6.7 44.1
18:50 1011 29.85 840 24.81 11.4 52.5 71 6.5 43.6
18:55 1011 29.85 840 24.81 11.3 52.4 71 6.3 43.3
19:00 1011 29.85 840 24.81 11.3 52.3 71 6.3 43.4
19:05 1011 29.85 840 24.81 11.1 51.9 71 6 42.8
19:10 1011 29.85 840 24.81 11 51.8 71 6 42.8
19:15 1011 29.85 840 24.81 10.8 51.4 72 6 42.8
19:20 1011 29.85 840 24.81 10.6 51.1 73 6 42.8
19:25 1011 29.85 840 24.81 10.4 50.8 74 6.1 43
19:30 1011 29.85 840 24.81 10 50 77 6.1 43
19:35 1011 29.85 840 24.81 9.8 49.6 80 6.4 43.6
19:40 1011 29.85 840 24.81 9.6 49.4 79 6.2 43.2
19:45 1011 29.85 841 24.83 9.6 49.3 79 6.1 43
19:50 1012 29.88 841 24.83 9.4 48.8 81 6.3 43.4
19:55 1012 29.88 841 24.83 9.2 48.5 85 6.8 44.2
20:00 1012 29.88 841 24.83 9 48.3 85 6.7 44.1
20:05 1012 29.88 841 24.83 9.1 48.3 84 6.5 43.7
20:10 1012 29.88 841 24.83 9.2 48.6 84 6.6 43.8
20:15 1012 29.88 841 24.83 9.2 48.6 83 6.5 43.6
20:20 1012 29.88 841 24.83 9.2 48.6 84 6.6 43.8
20:25 1012 29.88 841 24.83 9.2 48.6 84 6.6 43.9
20:30 1012 29.88 841 24.83 9.2 48.6 82 6.4 43.5
20:35 1012 29.88 841 24.83 9.4 48.9 81 6.4 43.5
20:40 1012 29.88 841 24.83 9.5 49 83 6.7 44.1
20:45 1011 29.85 841 24.83 9.2 48.6 86 7 44.5
20:50 1011 29.85 840 24.81 9 48.3 87 7 44.6
20:55 1010 29.83 840 24.81 8.9 48 87 6.9 44.4
21:00 1010 29.83 839 24.78 8.8 47.9 86 6.6 43.9
21:05 1009 29.8 839 24.78 8.9 48 86 6.7 44.1
21:10 1010 29.83 839 24.78 8.8 47.9 87 6.7 44.1
21:15 1010 29.83 839 24.78 9 48.1 83 6.2 43.2
21:20 1010 29.83 840 24.81 9.5 49 77 5.6 42
21:25 1011 29.85 840 24.81 9.7 49.5 77 5.9 42.6
21:30 1011 29.85 840 24.81 9.7 49.4 77 5.8 42.4
21:35 1011 29.85 840 24.81 9.7 49.5 77 6 42.7
21:40 1011 29.85 841 24.83 9.8 49.6 77 6 42.8
21:45 1011 29.85 840 24.81 9.7 49.4 77 5.9 42.6
21:50 1011 29.85 840 24.81 9.7 49.5 77 5.9 42.6
21:55 1010 29.83 840 24.81 9.7 49.5 76 5.8 42.5
22:00 1011 29.85 840 24.81 9.9 49.8 75 5.7 42.2
22:05 1011 29.85 840 24.81 10 50 80 6.7 44
22:10 1011 29.85 840 24.81 9.2 48.6 83 6.5 43.7
22:15 1011 29.85 840 24.81 9 48.1 83 6.2 43.2
22:20 1011 29.85 840 24.81 9 48.2 84 6.4 43.5
22:25 1011 29.85 840 24.81 8.9 47.9 84 6.4 43.5
22:30 1011 29.85 840 24.81 8.9 47.9 82 6 42.8
22:35 1011 29.85 840 24.81 9.2 48.5 84 6.6 43.8
22:40 1011 29.85 840 24.81 8.9 47.9 86 6.7 44.1
22:45 1011 29.85 840 24.81 8.4 47.2 88 6.5 43.8
22:50 1011 29.85 840 24.81 8.4 47.1 88 6.5 43.6
22:55 1011 29.85 840 24.81 8.3 47 87 6.4 43.5
23:00 1011 29.85 840 24.81 8.4 47.1 87 6.3 43.4
23:05 1011 29.85 840 24.81 8.7 47.7 84 6.2 43.1
23:10 1011 29.85 840 24.81 8.7 47.6 85 6.3 43.4
23:15 1011 29.85 840 24.81 8.8 47.8 85 6.3 43.3
23:20 1011 29.85 840 24.81 8.8 47.8 84 6.2 43.2
23:25 1011 29.85 840 24.81 8.9 47.9 84 6.4 43.5
23:30 1011 29.85 840 24.81 8.7 47.7 84 6.2 43.2
23:35 1011 29.85 841 24.83 8.5 47.2 86 6.2 43.2
23:40 1011 29.85 841 24.83 8.6 47.4 85 6.2 43.1
23:45 1011 29.85 841 24.83 8.7 47.6 85 6.3 43.3
23:50 1011 29.85 841 24.83 8.5 47.2 86 6.3 43.3
23:55 1011 29.85 841 24.83 8 46.5 88 6.2 43.1
24:00 1011 29.85 841 24.83 7.9 46.2 88 6.1 43